createdAt,value
2023-04-15T00:02:20.813Z,80.70
2023-04-15T00:04:50.171Z,81.02
2023-04-15T00:07:18.054Z,81.15
2023-04-15T00:09:46.083Z,80.80
2023-04-15T00:12:13.740Z,80.66
2023-04-15T00:14:41.642Z,80.79
2023-04-15T00:17:09.322Z,81.07
2023-04-15T00:19:37.008Z,81.27
2023-04-15T00:22:06.202Z,80.95
2023-04-15T00:24:34.485Z,81.42
2023-04-15T00:27:02.208Z,81.91
2023-04-15T00:29:30.509Z,81.77
2023-04-15T00:31:58.302Z,81.91
2023-04-15T00:34:26.077Z,82.17
2023-04-15T00:36:53.748Z,82.51
2023-04-15T00:39:23.939Z,82.03
2023-04-15T00:41:51.739Z,82.16
2023-04-15T00:44:20.105Z,82.13
2023-04-15T00:46:48.688Z,81.65
2023-04-15T00:49:16.365Z,82.43
2023-04-15T00:51:44.789Z,82.35
2023-04-15T00:54:12.930Z,82.45
2023-04-15T00:56:42.014Z,82.61
2023-04-15T00:59:10.422Z,82.54
2023-04-15T01:01:38.971Z,82.74
2023-04-15T01:04:06.943Z,82.95
2023-04-15T01:06:34.949Z,83.11
2023-04-15T01:09:03.438Z,82.93
2023-04-15T01:11:33.461Z,82.74
2023-04-15T01:14:02.853Z,83.10
2023-04-15T01:16:30.693Z,83.25
2023-04-15T01:18:58.719Z,83.40
2023-04-15T01:21:26.856Z,83.57
2023-04-15T01:23:56.922Z,83.74
2023-04-15T01:26:26.702Z,83.48
2023-04-15T01:28:54.585Z,84.36
2023-04-15T01:31:22.923Z,84.20
2023-04-15T01:33:50.667Z,84.49
2023-04-15T01:36:18.625Z,84.48
2023-04-15T01:38:46.413Z,84.42
2023-04-15T01:41:14.848Z,84.42
2023-04-15T01:43:43.878Z,84.46
2023-04-15T01:46:11.888Z,84.58
2023-04-15T01:48:39.617Z,84.22
2023-04-15T01:51:08.061Z,84.49
2023-04-15T01:53:35.778Z,83.51
2023-04-15T01:56:03.492Z,84.58
2023-04-15T01:58:31.446Z,84.76
2023-04-15T02:01:00.680Z,85.00
2023-04-15T02:03:29.899Z,85.01
2023-04-15T02:05:57.751Z,85.31
2023-04-15T02:08:25.364Z,84.98
2023-04-15T02:10:53.446Z,85.42
2023-04-15T02:13:21.116Z,85.43
2023-04-15T02:15:49.702Z,85.59
2023-04-15T02:18:18.739Z,85.60
2023-04-15T02:20:47.166Z,86.39
2023-04-15T02:23:15.786Z,86.27
2023-04-15T02:25:43.549Z,86.56
2023-04-15T02:28:21.807Z,85.84
2023-04-15T02:30:50.927Z,86.20
2023-04-15T02:33:20.207Z,86.44
2023-04-15T02:35:47.942Z,86.70
2023-04-15T02:38:17.892Z,86.18
2023-04-15T02:40:45.521Z,86.82
2023-04-15T02:43:13.465Z,86.77
2023-04-15T02:45:41.296Z,86.74
2023-04-15T02:48:08.936Z,86.97
2023-04-15T02:50:39.848Z,86.86
2023-04-15T02:53:07.806Z,87.02
2023-04-15T02:55:35.934Z,87.17
2023-04-15T02:58:03.702Z,87.11
2023-04-15T03:00:31.564Z,87.09
2023-04-15T03:03:00.458Z,86.98
2023-04-15T03:05:28.714Z,87.40
2023-04-15T03:07:57.820Z,87.63
2023-04-15T03:10:25.507Z,87.47
2023-04-15T03:12:53.289Z,87.56
2023-04-15T03:15:21.457Z,87.92
2023-04-15T03:17:49.711Z,87.99
2023-04-15T03:20:17.725Z,87.93
2023-04-15T03:22:45.392Z,87.68
2023-04-15T03:25:14.332Z,87.81
2023-04-15T03:27:43.102Z,87.08
2023-04-15T03:30:12.322Z,87.71
2023-04-15T03:32:40.149Z,88.14
2023-04-15T03:35:08.325Z,88.00
2023-04-15T03:37:36.031Z,88.28
2023-04-15T03:40:03.886Z,88.21
2023-04-15T03:42:32.896Z,88.66
2023-04-15T03:45:00.656Z,88.24
2023-04-15T03:47:28.340Z,88.32
2023-04-15T03:49:55.974Z,88.37
2023-04-15T03:52:23.603Z,88.34
2023-04-15T03:54:51.518Z,88.48
2023-04-15T03:57:19.217Z,88.23
2023-04-15T03:59:48.440Z,88.84
2023-04-15T04:02:16.321Z,88.64
2023-04-15T04:04:44.346Z,88.22
2023-04-15T04:07:16.718Z,88.78
2023-04-15T04:09:46.155Z,88.81
2023-04-15T04:12:14.709Z,88.47
2023-04-15T04:14:42.365Z,88.82
2023-04-15T04:17:11.688Z,88.98
2023-04-15T04:19:39.598Z,88.92
2023-04-15T04:22:07.326Z,89.34
2023-04-15T04:24:34.925Z,89.15
2023-04-15T04:27:02.574Z,89.55
2023-04-15T04:29:30.215Z,88.98
2023-04-15T04:31:57.867Z,89.50
2023-04-15T04:34:26.893Z,88.53
2023-04-15T04:36:54.766Z,89.14
2023-04-15T04:39:22.647Z,89.52
2023-04-15T04:41:52.206Z,89.44
2023-04-15T04:44:20.004Z,89.56
2023-04-15T04:46:47.731Z,89.57
2023-04-15T04:49:15.727Z,89.32
2023-04-15T04:51:45.336Z,89.51
2023-04-15T04:54:13.055Z,89.31
2023-04-15T04:56:40.976Z,89.29
2023-04-15T04:59:09.403Z,89.16
2023-04-15T05:01:37.249Z,89.25
2023-04-15T05:04:05.588Z,89.48
2023-04-15T05:06:33.689Z,89.41
2023-04-15T05:09:03.407Z,88.88
2023-04-15T05:11:31.382Z,88.70
2023-04-15T05:13:59.709Z,88.68
2023-04-15T05:16:27.336Z,87.99
2023-04-15T05:18:54.977Z,88.19
2023-04-15T05:21:22.707Z,87.79
2023-04-15T05:23:50.468Z,87.87
2023-04-15T05:26:19.676Z,88.09
2023-04-15T05:28:47.948Z,87.42
2023-04-15T05:31:15.683Z,87.31
2023-04-15T05:33:43.462Z,86.43
2023-04-15T05:36:12.200Z,86.34
2023-04-15T05:38:39.988Z,85.43
2023-04-15T05:41:07.678Z,84.28
2023-04-15T05:43:36.670Z,83.71
2023-04-15T05:46:06.656Z,82.73
2023-04-15T05:48:36.145Z,82.12
2023-04-15T05:51:04.013Z,80.74
2023-04-15T05:53:31.873Z,80.67
2023-04-15T05:55:59.633Z,81.71
2023-04-15T05:58:27.620Z,81.41
2023-04-15T06:00:56.806Z,81.36
2023-04-15T06:03:24.626Z,81.09
2023-04-15T06:05:52.548Z,80.25
2023-04-15T06:08:20.662Z,79.71
2023-04-15T06:10:48.470Z,78.60
2023-04-15T06:13:17.190Z,77.41
2023-04-15T06:15:44.972Z,76.52
2023-04-15T06:18:14.032Z,75.58
2023-04-15T06:20:41.741Z,74.31
2023-04-15T06:23:09.356Z,74.69
2023-04-15T06:25:37.277Z,73.96
2023-04-15T06:28:05.412Z,73.66
2023-04-15T06:30:33.157Z,72.43
2023-04-15T06:33:00.863Z,72.18
2023-04-15T06:35:29.900Z,70.68
2023-04-15T06:37:57.613Z,70.46
2023-04-15T06:40:25.425Z,68.51
2023-04-15T06:42:53.143Z,68.31
2023-04-15T06:45:20.755Z,67.70
2023-04-15T06:47:48.459Z,66.19
2023-04-15T06:50:16.252Z,64.22
2023-04-15T06:52:45.286Z,65.10
2023-04-15T06:55:13.199Z,64.31
2023-04-15T06:57:41.194Z,63.84
2023-04-15T07:00:11.502Z,62.96
2023-04-15T07:02:39.511Z,61.62
2023-04-15T07:05:08.513Z,59.92
2023-04-15T07:07:36.140Z,57.65
2023-04-15T07:10:06.034Z,55.66
2023-04-15T07:12:33.720Z,55.37
2023-04-15T07:15:01.513Z,55.51
2023-04-15T07:17:29.438Z,51.59
2023-04-15T07:19:57.095Z,49.57
2023-04-15T07:22:24.973Z,50.00
2023-04-15T07:24:52.685Z,51.43
2023-04-15T07:27:21.777Z,51.44
2023-04-15T07:29:51.473Z,52.22
2023-04-15T07:32:19.270Z,53.63
2023-04-15T07:34:47.057Z,54.06
2023-04-15T07:37:15.071Z,52.90
2023-04-15T07:39:42.795Z,52.22
2023-04-15T07:42:11.269Z,51.18
2023-04-15T07:44:40.479Z,50.43
2023-04-15T07:47:08.116Z,50.34
2023-04-15T07:49:36.430Z,48.56
2023-04-15T07:52:04.756Z,48.48
2023-04-15T07:54:32.482Z,47.51
2023-04-15T07:57:00.157Z,48.42
2023-04-15T07:59:30.068Z,48.26
2023-04-15T08:01:59.397Z,47.59
2023-04-15T08:04:27.678Z,48.97
2023-04-15T08:06:55.557Z,46.47
2023-04-15T08:09:23.434Z,48.07
2023-04-15T08:11:51.451Z,48.32
2023-04-15T08:14:19.423Z,49.34
2023-04-15T08:16:47.041Z,48.74
2023-04-15T08:19:16.093Z,50.33
2023-04-15T08:21:43.787Z,50.74
2023-04-15T08:24:11.574Z,53.41
2023-04-15T08:26:39.540Z,52.50
2023-04-15T08:29:07.392Z,51.36
2023-04-15T08:31:35.237Z,51.61
2023-04-15T08:34:03.612Z,52.21
2023-04-15T08:36:32.972Z,53.02
2023-04-15T08:39:02.208Z,57.34
2023-04-15T08:41:35.907Z,55.10
2023-04-15T08:44:06.169Z,54.88
2023-04-15T08:46:34.907Z,53.89
2023-04-15T08:49:05.856Z,53.91
2023-04-15T08:51:35.009Z,55.35
2023-04-15T08:54:03.534Z,56.57
2023-04-15T08:56:33.145Z,56.70
2023-04-15T08:59:01.530Z,55.51
2023-04-15T09:01:30.280Z,56.84
2023-04-15T09:03:59.939Z,57.42
2023-04-15T09:06:27.747Z,57.89
2023-04-15T09:08:57.486Z,58.43
2023-04-15T09:11:25.048Z,57.02
2023-04-15T09:13:52.689Z,57.48
2023-04-15T09:16:20.432Z,57.21
2023-04-15T09:18:48.091Z,57.12
2023-04-15T09:21:17.431Z,56.77
2023-04-15T09:23:57.858Z,57.98
2023-04-15T09:26:33.187Z,59.96
2023-04-15T09:29:06.695Z,58.93
2023-04-15T09:31:34.453Z,58.87
2023-04-15T09:34:02.828Z,59.52
2023-04-15T09:36:30.880Z,57.56
2023-04-15T09:39:01.142Z,56.76
2023-04-15T09:41:29.497Z,56.32
2023-04-15T09:43:57.179Z,56.88
2023-04-15T09:46:43.012Z,57.25
2023-04-15T09:49:11.770Z,56.47
2023-04-15T09:51:39.635Z,55.97
2023-04-15T09:54:08.837Z,55.26
2023-04-15T09:56:37.932Z,54.75
2023-04-15T09:59:06.949Z,55.24
2023-04-15T10:01:34.976Z,53.82
2023-04-15T10:04:05.318Z,52.29
2023-04-15T10:06:33.700Z,50.30
2023-04-15T10:09:02.161Z,49.46
2023-04-15T10:11:31.904Z,49.09
2023-04-15T10:14:00.086Z,48.20
2023-04-15T10:16:29.632Z,50.19
2023-04-15T10:18:58.568Z,50.68
2023-04-15T10:21:26.278Z,49.94
2023-04-15T10:23:54.472Z,49.56
2023-04-15T10:26:22.791Z,48.29
2023-04-15T10:28:53.512Z,47.42
2023-04-15T10:31:22.050Z,45.48
2023-04-15T10:33:50.752Z,44.71
2023-04-15T10:36:20.637Z,44.08
2023-04-15T10:38:48.340Z,44.48
2023-04-15T10:41:21.551Z,43.14
2023-04-15T10:43:53.538Z,42.91
2023-04-15T10:46:23.898Z,41.62
2023-04-15T10:48:53.122Z,43.90
2023-04-15T10:51:32.323Z,44.61
2023-04-15T10:54:01.159Z,43.10
2023-04-15T10:56:30.944Z,42.94
2023-04-15T10:59:02.324Z,44.44
2023-04-15T11:01:56.601Z,44.81
2023-04-15T11:04:58.109Z,45.85
2023-04-15T11:07:39.967Z,44.33
2023-04-15T11:10:49.173Z,43.35
2023-04-15T11:13:18.912Z,43.39
2023-04-15T11:15:51.974Z,42.86
2023-04-15T11:18:22.083Z,42.84
2023-04-15T11:20:52.218Z,43.35
2023-04-15T11:23:21.269Z,42.52
2023-04-15T11:25:49.466Z,41.40
2023-04-15T11:28:17.324Z,41.58
2023-04-15T11:30:45.371Z,41.52
2023-04-15T11:33:14.626Z,40.88
2023-04-15T11:35:42.691Z,39.67
2023-04-15T11:38:11.897Z,38.44
2023-04-15T11:40:40.966Z,38.22
2023-04-15T11:43:09.892Z,38.43
2023-04-15T11:45:38.586Z,37.95
2023-04-15T11:48:07.858Z,40.06
2023-04-15T11:50:38.230Z,40.57
2023-04-15T11:53:08.653Z,41.33
2023-04-15T11:55:44.703Z,39.87
2023-04-15T11:58:15.640Z,39.53
2023-04-15T12:00:48.904Z,40.97
2023-04-15T12:03:20.800Z,40.19
2023-04-15T12:06:07.916Z,40.51
2023-04-15T12:09:00.375Z,41.02
2023-04-15T12:11:37.073Z,41.76
2023-04-15T12:14:07.778Z,41.50
2023-04-15T12:16:47.978Z,41.74
2023-04-15T12:19:19.900Z,40.84
2023-04-15T12:21:51.429Z,40.33
2023-04-15T12:24:22.169Z,42.38
2023-04-15T12:26:51.747Z,42.53
2023-04-15T12:29:19.410Z,43.02
2023-04-15T12:31:51.749Z,42.86
2023-04-15T12:34:21.046Z,43.10
2023-04-15T12:36:50.104Z,42.47
2023-04-15T12:39:17.789Z,41.45
2023-04-15T12:41:45.516Z,42.56
2023-04-15T12:44:13.921Z,42.02
2023-04-15T12:46:41.937Z,41.49
2023-04-15T12:49:10.270Z,40.30
2023-04-15T12:51:38.017Z,39.77
2023-04-15T12:54:07.338Z,40.96
2023-04-15T12:56:35.196Z,41.30
2023-04-15T12:59:05.611Z,39.81
2023-04-15T13:01:33.240Z,40.26
2023-04-15T13:04:00.973Z,40.84
2023-04-15T13:06:29.156Z,39.44
2023-04-15T13:08:58.744Z,38.90
2023-04-15T13:11:30.830Z,39.21
2023-04-15T13:13:59.041Z,39.49
2023-04-15T13:16:26.784Z,39.42
2023-04-15T13:18:54.557Z,39.14
2023-04-15T13:21:22.310Z,39.53
2023-04-15T13:23:51.033Z,39.46
2023-04-15T13:26:18.784Z,39.85
2023-04-15T13:28:48.085Z,39.63
2023-04-15T13:31:15.836Z,39.54
2023-04-15T13:33:43.515Z,39.86
2023-04-15T13:36:11.456Z,39.16
2023-04-15T13:38:39.171Z,39.12
2023-04-15T13:41:07.018Z,38.91
2023-04-15T13:43:34.676Z,39.39
2023-04-15T13:46:03.999Z,39.59
2023-04-15T13:48:31.689Z,39.41
2023-04-15T13:51:00.654Z,37.91
2023-04-15T13:53:38.953Z,37.43
2023-04-15T13:56:07.875Z,37.88
2023-04-15T13:58:35.743Z,37.67
2023-04-15T14:01:06.135Z,37.47
2023-04-15T14:03:35.054Z,38.31
2023-04-15T14:06:02.969Z,38.32
2023-04-15T14:08:31.182Z,39.86
2023-04-15T14:10:59.292Z,40.04
2023-04-15T14:13:27.185Z,40.84
2023-04-15T14:15:54.922Z,41.08
2023-04-15T14:18:24.114Z,41.38
2023-04-15T14:20:52.408Z,41.43
2023-04-15T14:23:20.328Z,41.52
2023-04-15T14:25:48.500Z,41.69
2023-04-15T14:28:17.170Z,42.38
2023-04-15T14:30:45.240Z,42.23
2023-04-15T14:33:13.199Z,42.65
2023-04-15T14:35:42.261Z,42.41
2023-04-15T14:38:11.166Z,44.16
2023-04-15T14:40:39.351Z,44.06
2023-04-15T14:43:07.262Z,44.19
2023-04-15T14:45:36.370Z,44.87
2023-04-15T14:48:04.500Z,44.60
2023-04-15T14:50:32.324Z,43.72
2023-04-15T14:53:01.536Z,44.15
2023-04-15T14:55:29.304Z,44.19
2023-04-15T14:57:57.255Z,45.81
2023-04-15T15:00:25.018Z,46.87
2023-04-15T15:02:52.745Z,49.69
2023-04-15T15:05:20.789Z,57.20
2023-04-15T15:07:49.047Z,62.87
2023-04-15T15:10:32.744Z,63.82
2023-04-15T15:13:07.024Z,64.01
2023-04-15T15:15:35.551Z,64.93
2023-04-15T15:18:03.547Z,67.87
2023-04-15T15:20:32.900Z,69.40
2023-04-15T15:23:00.840Z,69.67
2023-04-15T15:25:30.570Z,71.13
2023-04-15T15:27:59.252Z,71.16
2023-04-15T15:30:27.343Z,72.33
2023-04-15T15:32:55.008Z,73.15
2023-04-15T15:35:23.676Z,72.33
2023-04-15T15:37:51.651Z,70.12
2023-04-15T15:40:19.542Z,72.10
2023-04-15T15:42:49.902Z,72.32
2023-04-15T15:45:18.478Z,70.39
2023-04-15T15:47:46.295Z,69.45
2023-04-15T15:50:14.872Z,66.97
2023-04-15T15:52:42.682Z,66.07
2023-04-15T15:55:12.211Z,66.74
2023-04-15T15:57:39.940Z,68.18
2023-04-15T16:00:13.046Z,67.82
2023-04-15T16:05:12.280Z,67.45
2023-04-15T16:07:40.076Z,67.07
2023-04-15T16:10:08.765Z,67.62
2023-04-15T16:12:36.558Z,68.73
2023-04-15T16:15:04.831Z,69.03
2023-04-15T16:17:34.576Z,69.21
2023-04-15T16:20:05.453Z,69.44
2023-04-15T16:22:33.624Z,70.32
2023-04-15T16:25:01.683Z,71.29
2023-04-15T16:27:29.690Z,71.95
2023-04-15T16:29:57.391Z,71.94
2023-04-15T16:32:25.115Z,72.21
2023-04-15T16:34:55.036Z,71.88
2023-04-15T16:37:23.175Z,71.81
2023-04-15T16:39:50.897Z,71.83
2023-04-15T16:42:18.664Z,73.27
2023-04-15T16:44:46.516Z,73.04
2023-04-15T16:47:14.787Z,72.46
2023-04-15T16:49:42.381Z,72.54
2023-04-15T16:52:11.458Z,73.19
2023-04-15T16:54:41.373Z,73.00
2023-04-15T16:57:09.546Z,73.81
2023-04-15T16:59:38.848Z,74.23
2023-04-15T17:02:06.748Z,74.53
2023-04-15T17:04:34.899Z,75.17
2023-04-15T17:07:02.991Z,75.36
2023-04-15T17:09:31.991Z,75.75
2023-04-15T17:11:59.668Z,75.91
2023-04-15T17:14:28.606Z,77.66
2023-04-15T17:16:56.537Z,77.52
2023-04-15T17:19:24.618Z,79.10
2023-04-15T17:21:54.795Z,78.36
2023-04-15T17:24:22.937Z,78.68
2023-04-15T17:26:52.168Z,78.41
2023-04-15T17:29:20.074Z,77.90
2023-04-15T17:31:47.960Z,79.54
2023-04-15T17:34:16.198Z,78.78
2023-04-15T17:36:44.526Z,79.37
2023-04-15T17:39:14.016Z,79.44
2023-04-15T17:41:41.764Z,79.73
2023-04-15T17:44:10.808Z,80.27
2023-04-15T17:46:38.601Z,80.60
2023-04-15T17:49:07.002Z,80.90
2023-04-15T17:51:34.945Z,80.71
2023-04-15T17:54:03.055Z,81.59
2023-04-15T17:56:31.036Z,81.13
2023-04-15T17:59:00.795Z,81.52
2023-04-15T18:01:29.976Z,81.35
2023-04-15T18:03:57.762Z,81.45
2023-04-15T18:06:27.178Z,82.70
2023-04-15T18:08:56.076Z,82.14
2023-04-15T18:11:23.743Z,81.24
2023-04-15T18:13:51.380Z,81.56
2023-04-15T18:16:19.320Z,81.69
2023-04-15T18:18:49.024Z,81.24
2023-04-15T18:21:16.841Z,82.97
2023-04-15T18:23:44.723Z,81.84
2023-04-15T18:26:13.714Z,82.64
2023-04-15T18:28:41.449Z,82.45
2023-04-15T18:31:09.177Z,82.94
2023-04-15T18:33:36.924Z,82.08
2023-04-15T18:36:06.241Z,82.44
2023-04-15T18:38:33.998Z,82.00
2023-04-15T18:41:03.168Z,82.09
2023-04-15T18:43:30.862Z,82.97
2023-04-15T18:45:58.810Z,82.80
2023-04-15T18:48:26.929Z,82.54
2023-04-15T18:50:54.913Z,82.66
2023-04-15T18:53:24.021Z,83.22
2023-04-15T18:55:51.717Z,82.46
2023-04-15T18:58:19.743Z,82.59
2023-04-15T19:00:47.422Z,83.08
2023-04-15T19:03:15.099Z,83.62
2023-04-15T19:05:43.160Z,83.09
2023-04-15T19:08:11.537Z,82.95
2023-04-15T19:10:40.737Z,84.03
2023-04-15T19:13:08.403Z,83.63
2023-04-15T19:15:36.987Z,84.15
2023-04-15T19:18:10.281Z,84.80
2023-04-15T19:20:40.117Z,84.12
2023-04-15T19:23:08.168Z,84.45
2023-04-15T19:25:35.869Z,84.81
2023-04-15T19:28:05.473Z,85.31
2023-04-15T19:30:33.781Z,85.33
2023-04-15T19:33:01.583Z,85.28
2023-04-15T19:35:29.434Z,84.69
2023-04-15T19:37:57.194Z,84.69
2023-04-15T19:40:24.915Z,85.06
2023-04-15T19:42:52.886Z,85.01
2023-04-15T19:45:22.199Z,84.92
2023-04-15T19:47:50.038Z,84.94
2023-04-15T19:50:19.323Z,85.78
2023-04-15T19:52:47.045Z,85.77
2023-04-15T19:55:15.023Z,85.93
2023-04-15T19:57:43.418Z,85.47
2023-04-15T20:00:12.159Z,85.47
2023-04-15T20:02:41.418Z,85.57
2023-04-15T20:05:10.490Z,85.75
2023-04-15T20:07:39.750Z,85.23
2023-04-15T20:10:08.648Z,85.12
2023-04-15T20:12:49.545Z,85.95
2023-04-15T20:15:21.441Z,85.69
2023-04-15T20:17:51.415Z,86.03
2023-04-15T20:20:19.541Z,86.17
2023-04-15T20:22:47.320Z,86.00
2023-04-15T20:25:15.738Z,86.20
2023-04-15T20:27:43.615Z,87.02
2023-04-15T20:30:12.040Z,86.52
2023-04-15T20:32:39.695Z,87.07
2023-04-15T20:35:09.321Z,87.05
2023-04-15T20:37:40.392Z,86.73
2023-04-15T20:40:09.518Z,86.92
2023-04-15T20:42:38.158Z,86.55
2023-04-15T20:45:07.019Z,86.89
2023-04-15T20:47:34.788Z,86.61
2023-04-15T20:50:02.655Z,86.68
2023-04-15T20:52:31.702Z,86.91
2023-04-15T20:54:59.348Z,86.67
2023-04-15T20:57:28.647Z,86.83
2023-04-15T20:59:56.328Z,86.99
2023-04-15T21:02:24.405Z,86.98
2023-04-15T21:04:52.215Z,86.55
2023-04-15T21:07:20.277Z,86.06
2023-04-15T21:09:49.453Z,86.21
2023-04-15T21:12:17.200Z,86.26
2023-04-15T21:14:44.812Z,85.92
2023-04-15T21:17:12.468Z,85.72
2023-04-15T21:19:40.356Z,86.15
2023-04-15T21:22:08.316Z,85.77
2023-04-15T21:24:36.385Z,85.67
2023-04-15T21:27:05.807Z,85.07
2023-04-15T21:29:33.553Z,85.16
2023-04-15T21:32:01.289Z,84.81
2023-04-15T21:34:29.123Z,85.21
2023-04-15T21:36:57.063Z,85.17
2023-04-15T21:39:24.829Z,85.40
2023-04-15T21:41:52.716Z,85.14
2023-04-15T21:44:21.749Z,84.61
2023-04-15T21:46:49.482Z,84.64
2023-04-15T21:49:17.296Z,84.38
2023-04-15T21:51:46.372Z,84.04
2023-04-15T21:54:14.276Z,84.84
2023-04-15T21:56:42.678Z,84.10
2023-04-15T21:59:10.296Z,83.47
2023-04-15T22:01:39.758Z,83.56
2023-04-15T22:04:07.876Z,84.05
2023-04-15T22:06:36.032Z,84.17
2023-04-15T22:09:04.098Z,84.82
2023-04-15T22:11:32.340Z,83.82
2023-04-15T22:14:00.640Z,84.01
2023-04-15T22:16:29.104Z,84.60
2023-04-15T22:18:58.291Z,84.77
2023-04-15T22:21:26.753Z,84.33
2023-04-15T22:24:32.284Z,84.13
2023-04-15T22:26:42.579Z,84.31
2023-04-15T22:29:10.611Z,84.50
2023-04-15T22:31:38.400Z,84.67
2023-04-15T22:34:08.548Z,84.12
2023-04-15T22:36:36.385Z,84.35
2023-04-15T22:39:04.747Z,84.50
2023-04-15T22:41:32.836Z,84.49
2023-04-15T22:44:00.752Z,84.38
2023-04-15T22:46:28.442Z,84.00
2023-04-15T22:48:56.124Z,83.79
2023-04-15T22:51:26.980Z,83.97
2023-04-15T22:53:54.964Z,83.91
2023-04-15T22:56:23.368Z,83.41
2023-04-15T22:58:51.628Z,83.92
2023-04-15T23:01:21.313Z,83.53
2023-04-15T23:03:56.691Z,84.04
2023-04-15T23:06:34.294Z,83.91
2023-04-15T23:09:02.257Z,83.75
2023-04-15T23:11:30.260Z,84.18
2023-04-15T23:13:58.144Z,83.62
2023-04-15T23:16:26.070Z,83.44
2023-04-15T23:18:53.908Z,83.69
2023-04-15T23:21:22.458Z,83.78
2023-04-15T23:23:52.175Z,83.63
2023-04-15T23:26:19.884Z,84.31
2023-04-15T23:28:47.511Z,83.87
2023-04-15T23:31:15.196Z,84.01
2023-04-15T23:33:42.859Z,84.21
2023-04-15T23:36:10.485Z,84.07
2023-04-15T23:38:38.065Z,83.93
2023-04-15T23:41:07.401Z,84.17
2023-04-15T23:43:34.990Z,84.28
2023-04-15T23:46:02.588Z,84.38
2023-04-15T23:48:30.288Z,84.38
2023-04-15T23:50:58.119Z,83.75
2023-04-15T23:53:25.724Z,83.43
2023-04-15T23:55:53.372Z,83.20
2023-04-15T23:58:22.634Z,83.45
